Time;durP1;ratioP1;P1;durP2;ratioP2;P2;SDS_P1;SDS_P2;PMS_P1;PMS_P2;Temp;Humidity;BMP_temperature;BMP_pressure;BME280_temperature;BME280_humidity;BME280_pressure;Samples;Min_cycle;Max_cycle;Signal;HPM_P1;HPM_P2
2023/11/10 00:00:21;;;;;;;4.32;1.40;;;;;;;;;;5068631;28;20049;-68
2023/11/10 00:02:47;;;;;;;6.05;1.30;;;;;;;;;;5073694;28;20508;-67
2023/11/10 00:05:15;;;;;;;4.28;1.48;;;;;;;;;;5071552;28;20490;-67
2023/11/10 00:07:44;;;;;;;4.40;1.60;;;;;;;;;;5039827;28;20061;-67
2023/11/10 00:10:11;;;;;;;4.00;1.23;;;;;;;;;;5071187;28;20045;-67
2023/11/10 00:12:38;;;;;;;4.47;1.48;;;;;;;;;;5075055;28;20512;-67
2023/11/10 00:15:08;;;;;;;2.88;1.08;;;;;;;;;;5069716;28;20504;-67
2023/11/10 00:17:35;;;;;;;4.88;1.30;;;;;;;;;;5068776;28;20060;-67
2023/11/10 00:20:02;;;;;;;4.03;1.25;;;;;;;;;;5071908;28;20131;-67
2023/11/10 00:22:31;;;;;;;4.07;1.23;;;;;;;;;;5056775;28;20053;-67
2023/11/10 00:24:59;;;;;;;6.72;1.42;;;;;;;;;;5061758;28;20057;-68
2023/11/10 00:27:26;;;;;;;5.15;1.33;;;;;;;;;;5074265;28;20059;-68
2023/11/10 00:29:53;;;;;;;2.88;0.98;;;;;;;;;;5070437;28;20123;-67
2023/11/10 00:32:20;;;;;;;2.15;1.00;;;;;;;;;;5057968;28;20064;-67
2023/11/10 00:34:47;;;;;;;2.33;1.10;;;;;;;;;;5059246;28;20401;-67
2023/11/10 00:37:13;;;;;;;4.47;1.10;;;;;;;;;;5074962;28;20059;-67
2023/11/10 00:39:40;;;;;;;2.90;1.10;;;;;;;;;;5071390;28;20055;-67
2023/11/10 00:42:08;;;;;;;3.65;1.25;;;;;;;;;;5075401;28;20061;-67
2023/11/10 00:44:35;;;;;;;4.03;1.00;;;;;;;;;;5069043;28;20056;-68
2023/11/10 00:47:02;;;;;;;2.95;0.80;;;;;;;;;;5066543;28;20529;-67
2023/11/10 00:49:29;;;;;;;3.35;1.00;;;;;;;;;;5074886;28;20048;-67
2023/11/10 00:51:56;;;;;;;4.25;1.17;;;;;;;;;;5072179;28;20060;-66
2023/11/10 00:54:23;;;;;;;5.97;1.27;;;;;;;;;;5068518;28;20056;-66
2023/11/10 00:56:50;;;;;;;2.60;0.82;;;;;;;;;;5073071;28;20052;-66
2023/11/10 00:59:18;;;;;;;3.78;0.90;;;;;;;;;;5069923;28;20052;-66
2023/11/10 01:01:44;;;;;;;2.25;1.13;;;;;;;;;;5063579;28;20048;-66
2023/11/10 01:04:11;;;;;;;3.28;1.20;;;;;;;;;;5074773;28;20532;-67
2023/11/10 01:06:38;;;;;;;6.70;1.10;;;;;;;;;;5070806;28;20428;-66
2023/11/10 01:09:05;;;;;;;2.10;0.98;;;;;;;;;;5070336;28;20064;-66
2023/11/10 01:11:32;;;;;;;2.72;1.10;;;;;;;;;;5072892;28;20067;-66
2023/11/10 01:13:59;;;;;;;4.38;1.17;;;;;;;;;;5068507;28;20056;-66
2023/11/10 01:16:28;;;;;;;3.30;1.20;;;;;;;;;;5065453;28;20056;-66
2023/11/10 01:18:55;;;;;;;4.05;1.27;;;;;;;;;;5071515;28;20048;-66
2023/11/10 01:21:22;;;;;;;3.17;1.20;;;;;;;;;;5064366;28;20045;-66
2023/11/10 01:23:50;;;;;;;3.97;1.23;;;;;;;;;;5070684;28;20056;-65
2023/11/10 01:26:17;;;;;;;3.38;1.00;;;;;;;;;;5072788;28;20063;-65
2023/11/10 01:28:44;;;;;;;2.35;1.00;;;;;;;;;;5069501;28;20045;-65
2023/11/10 01:31:10;;;;;;;2.00;0.80;;;;;;;;;;5070830;28;20053;-65
2023/11/10 01:33:38;;;;;;;4.82;0.95;;;;;;;;;;5066087;28;20041;-65
2023/11/10 01:36:06;;;;;;;5.10;1.25;;;;;;;;;;5070430;28;20425;-66
2023/11/10 01:38:32;;;;;;;5.00;1.30;;;;;;;;;;5073698;28;20049;-67
2023/11/10 01:40:59;;;;;;;3.67;1.38;;;;;;;;;;5071707;28;20060;-66
2023/11/10 01:43:26;;;;;;;3.25;1.30;;;;;;;;;;5073833;28;20438;-66
2023/11/10 01:45:53;;;;;;;6.65;1.20;;;;;;;;;;5068461;28;20051;-65
2023/11/10 01:48:20;;;;;;;7.20;1.10;;;;;;;;;;5066697;28;20444;-64
2023/11/10 01:50:48;;;;;;;5.07;1.27;;;;;;;;;;5072431;28;20051;-65
2023/11/10 01:53:15;;;;;;;3.22;1.20;;;;;;;;;;5071374;28;20056;-64
2023/11/10 01:55:43;;;;;;;3.35;0.98;;;;;;;;;;5068540;28;20417;-65
2023/11/10 01:58:11;;;;;;;3.17;1.00;;;;;;;;;;5073755;28;20390;-65
2023/11/10 02:00:39;;;;;;;3.83;1.02;;;;;;;;;;5068779;28;20052;-65
2023/11/10 02:03:06;;;;;;;4.68;1.33;;;;;;;;;;5064521;28;20053;-66
2023/11/10 02:05:33;;;;;;;3.90;1.15;;;;;;;;;;5063105;28;20049;-66
2023/11/10 02:08:02;;;;;;;3.83;1.17;;;;;;;;;;5033458;28;20090;-67
2023/11/10 02:10:28;;;;;;;2.95;1.30;;;;;;;;;;5045836;28;20049;-66
2023/11/10 02:12:56;;;;;;;4.43;1.42;;;;;;;;;;5070027;28;20067;-66
2023/11/10 02:15:23;;;;;;;2.00;0.90;;;;;;;;;;5073782;28;20057;-67
2023/11/10 02:17:50;;;;;;;2.58;1.30;;;;;;;;;;5065556;28;20501;-66
2023/11/10 02:20:17;;;;;;;3.50;1.00;;;;;;;;;;5064312;28;20075;-67
2023/11/10 02:22:44;;;;;;;3.10;1.08;;;;;;;;;;5070338;28;20405;-67
2023/11/10 02:25:14;;;;;;;2.72;0.90;;;;;;;;;;5066564;28;20063;-67
2023/11/10 02:27:41;;;;;;;3.92;1.05;;;;;;;;;;5071933;28;20044;-66
2023/11/10 02:30:09;;;;;;;2.85;1.10;;;;;;;;;;5069292;28;20052;-67
2023/11/10 02:32:36;;;;;;;4.57;0.98;;;;;;;;;;5072793;28;20059;-66
2023/11/10 02:35:08;;;;;;;2.33;0.98;;;;;;;;;;5063934;28;20057;-66
2023/11/10 02:37:35;;;;;;;3.25;0.90;;;;;;;;;;5072628;28;20049;-66
2023/11/10 02:40:02;;;;;;;3.33;1.00;;;;;;;;;;5071716;28;20402;-66
2023/11/10 02:42:30;;;;;;;2.47;1.25;;;;;;;;;;5065236;28;20044;-66
2023/11/10 02:44:57;;;;;;;2.97;1.23;;;;;;;;;;5068449;28;20444;-66
2023/11/10 02:47:26;;;;;;;5.07;1.30;;;;;;;;;;5069056;28;20055;-66
2023/11/10 02:49:53;;;;;;;;;;;;;;;;;;5065541;28;20481;-66
2023/11/10 02:52:20;;;;;;;4.72;1.20;;;;;;;;;;5071266;28;19920;-66
2023/11/10 02:54:46;;;;;;;3.00;1.00;;;;;;;;;;5068334;28;20055;-66
2023/11/10 02:57:13;;;;;;;3.25;1.00;;;;;;;;;;5072343;28;20048;-66
2023/11/10 02:59:41;;;;;;;3.40;0.95;;;;;;;;;;5067806;28;20409;-66
2023/11/10 03:02:08;;;;;;;1.73;0.93;;;;;;;;;;5070446;28;20044;-66
2023/11/10 03:04:37;;;;;;;2.58;0.90;;;;;;;;;;5051224;28;20490;-66
2023/11/10 03:07:05;;;;;;;2.33;0.88;;;;;;;;;;5066009;28;20056;-66
2023/11/10 03:09:31;;;;;;;2.70;1.10;;;;;;;;;;5072547;28;20052;-66
2023/11/10 03:11:58;;;;;;;4.38;1.10;;;;;;;;;;5064090;28;20057;-66
2023/11/10 03:14:25;;;;;;;2.55;0.95;;;;;;;;;;5066971;28;20529;-66
2023/11/10 03:16:53;;;;;;;3.95;1.33;;;;;;;;;;5066812;28;20052;-66
2023/11/10 03:19:20;;;;;;;5.30;1.00;;;;;;;;;;5069266;28;20052;-66
2023/11/10 03:21:48;;;;;;;2.92;1.10;;;;;;;;;;5060068;28;20059;-66
2023/11/10 03:24:14;;;;;;;3.47;1.10;;;;;;;;;;5070339;28;20052;-66
2023/11/10 03:26:41;;;;;;;4.07;1.10;;;;;;;;;;5060439;28;20056;-66
2023/11/10 03:29:08;;;;;;;3.85;1.15;;;;;;;;;;5069013;28;20053;-66
2023/11/10 03:31:37;;;;;;;6.93;1.35;;;;;;;;;;5067533;28;20057;-66
2023/11/10 03:34:05;;;;;;;4.38;1.20;;;;;;;;;;5072699;28;20048;-66
2023/11/10 03:36:32;;;;;;;5.65;1.35;;;;;;;;;;5062674;28;20058;-66
2023/11/10 03:38:59;;;;;;;3.58;1.10;;;;;;;;;;5071054;28;20055;-66
2023/11/10 03:41:25;;;;;;;2.55;0.85;;;;;;;;;;5068604;28;20051;-65
2023/11/10 03:43:52;;;;;;;4.47;1.40;;;;;;;;;;5067628;28;20379;-66
2023/11/10 03:46:19;;;;;;;2.80;0.80;;;;;;;;;;5069361;28;20435;-65
2023/11/10 03:48:46;;;;;;;1.90;0.95;;;;;;;;;;5072214;28;20404;-66
2023/11/10 03:51:14;;;;;;;2.17;0.90;;;;;;;;;;5065930;28;20060;-66
2023/11/10 03:53:42;;;;;;;3.25;0.98;;;;;;;;;;5070415;28;20044;-66
2023/11/10 03:56:08;;;;;;;3.25;1.13;;;;;;;;;;5065055;28;20378;-66
2023/11/10 03:58:36;;;;;;;4.18;1.02;;;;;;;;;;5071666;28;20052;-66
2023/11/10 04:01:07;;;;;;;2.83;0.80;;;;;;;;;;5069457;28;20052;-66
2023/11/10 04:03:34;;;;;;;2.17;0.80;;;;;;;;;;5069911;28;20052;-66
2023/11/10 04:06:01;;;;;;;2.58;0.88;;;;;;;;;;5057436;28;20422;-66
2023/11/10 04:08:29;;;;;;;4.10;1.20;;;;;;;;;;5064306;28;20067;-66
2023/11/10 04:10:56;;;;;;;3.65;0.88;;;;;;;;;;5073495;28;20048;-66
2023/11/10 04:13:23;;;;;;;4.20;1.50;;;;;;;;;;5070625;28;20052;-66
2023/11/10 04:15:49;;;;;;;3.17;1.02;;;;;;;;;;5075076;28;20048;-67
2023/11/10 04:18:17;;;;;;;1.63;0.93;;;;;;;;;;5072579;28;20059;-66
2023/11/10 04:20:45;;;;;;;5.18;1.50;;;;;;;;;;5065605;28;20048;-66
2023/11/10 04:23:14;;;;;;;3.83;1.40;;;;;;;;;;5068058;28;20060;-66
2023/11/10 04:25:42;;;;;;;3.10;1.50;;;;;;;;;;5069703;28;20053;-66
2023/11/10 04:28:11;;;;;;;3.25;1.40;;;;;;;;;;5075377;28;20382;-66
2023/11/10 04:30:38;;;;;;;4.97;1.47;;;;;;;;;;5070712;28;20510;-66
2023/11/10 04:33:05;;;;;;;3.03;1.70;;;;;;;;;;5075583;28;20044;-66
2023/11/10 04:35:31;;;;;;;5.32;1.40;;;;;;;;;;5063678;28;20067;-66
2023/11/10 04:38:00;;;;;;;4.78;1.42;;;;;;;;;;5060447;28;20060;-65
2023/11/10 04:40:27;;;;;;;3.15;1.20;;;;;;;;;;5075356;28;20056;-66
2023/11/10 04:42:57;;;;;;;3.85;1.40;;;;;;;;;;5069326;28;20045;-65
2023/11/10 04:45:26;;;;;;;5.88;1.75;;;;;;;;;;5060995;28;20048;-66
2023/11/10 04:47:53;;;;;;;3.92;1.48;;;;;;;;;;5071043;28;20063;-65
2023/11/10 04:50:20;;;;;;;3.53;1.50;;;;;;;;;;5074979;28;20074;-65
2023/11/10 04:52:48;;;;;;;4.97;1.77;;;;;;;;;;5071199;28;20049;-65
2023/11/10 04:55:15;;;;;;;3.47;1.30;;;;;;;;;;5071471;28;20052;-65
2023/11/10 04:57:41;;;;;;;2.83;1.27;;;;;;;;;;5069656;28;20056;-65
2023/11/10 05:00:11;;;;;;;4.05;1.38;;;;;;;;;;5072243;28;20052;-65
2023/11/10 05:02:37;;;;;;;3.88;1.70;;;;;;;;;;5073634;28;20052;-65
2023/11/10 05:05:06;;;;;;;5.38;1.45;;;;;;;;;;5067297;28;20494;-66
2023/11/10 05:07:33;;;;;;;3.47;1.33;;;;;;;;;;5054563;28;20057;-65
2023/11/10 05:10:00;;;;;;;6.72;1.63;;;;;;;;;;5062400;28;20057;-65
2023/11/10 05:12:27;;;;;;;4.28;1.80;;;;;;;;;;5073025;28;20399;-65
2023/11/10 05:14:54;;;;;;;4.35;1.45;;;;;;;;;;5060427;28;20045;-65
2023/11/10 05:17:22;;;;;;;4.30;1.25;;;;;;;;;;5071536;28;20110;-65
2023/11/10 05:19:49;;;;;;;5.20;1.40;;;;;;;;;;5069872;28;20053;-65
2023/11/10 05:22:16;;;;;;;3.20;1.23;;;;;;;;;;5064303;28;20516;-65
2023/11/10 05:24:43;;;;;;;2.97;1.33;;;;;;;;;;5061618;28;20060;-65
2023/11/10 05:27:10;;;;;;;4.72;1.75;;;;;;;;;;5072069;28;20053;-65
2023/11/10 05:29:37;;;;;;;3.38;1.40;;;;;;;;;;5068187;28;20053;-65
2023/11/10 05:32:04;;;;;;;4.22;1.20;;;;;;;;;;5071206;28;20493;-64
2023/11/10 05:34:33;;;;;;;2.80;1.27;;;;;;;;;;5072536;28;20059;-65
2023/11/10 05:36:59;;;;;;;4.30;1.40;;;;;;;;;;5073924;28;20056;-64
2023/11/10 05:39:26;;;;;;;5.57;1.20;;;;;;;;;;5058705;28;20520;-65
2023/11/10 05:41:53;;;;;;;3.78;1.30;;;;;;;;;;5054064;28;20485;-64
2023/11/10 05:44:20;;;;;;;3.40;1.50;;;;;;;;;;5053664;28;20485;-64
2023/11/10 05:46:46;;;;;;;4.20;1.73;;;;;;;;;;5053585;28;20416;-63
2023/11/10 05:49:13;;;;;;;2.83;1.40;;;;;;;;;;5053809;28;20052;-64
2023/11/10 05:51:41;;;;;;;4.43;1.33;;;;;;;;;;5053399;28;20060;-64
2023/11/10 05:54:08;;;;;;;3.17;1.60;;;;;;;;;;5053635;28;20482;-63
2023/11/10 05:56:37;;;;;;;3.03;1.33;;;;;;;;;;5053629;28;20049;-63
2023/11/10 05:59:04;;;;;;;3.63;1.30;;;;;;;;;;5053570;28;20061;-63
2023/11/10 06:01:31;;;;;;;6.05;1.45;;;;;;;;;;5053429;28;20057;-63
2023/11/10 06:03:57;;;;;;;5.22;1.80;;;;;;;;;;5053660;28;20045;-63
2023/11/10 06:06:24;;;;;;;4.75;1.48;;;;;;;;;;5052230;28;20048;-62
2023/11/10 06:08:54;;;;;;;5.20;1.60;;;;;;;;;;5052562;28;20393;-63
2023/11/10 06:11:21;;;;;;;4.00;1.50;;;;;;;;;;5053241;28;20063;-63
2023/11/10 06:13:48;;;;;;;3.90;1.50;;;;;;;;;;5050913;28;20052;-63
2023/11/10 06:16:15;;;;;;;4.78;1.40;;;;;;;;;;5052770;28;20064;-63
2023/11/10 06:18:42;;;;;;;5.20;1.67;;;;;;;;;;5052570;28;20049;-63
2023/11/10 06:21:11;;;;;;;5.68;1.75;;;;;;;;;;5052441;28;20057;-63
2023/11/10 06:23:38;;;;;;;3.55;1.58;;;;;;;;;;5053036;28;20508;-63
2023/11/10 06:26:06;;;;;;;5.70;2.00;;;;;;;;;;5052370;28;20052;-63
2023/11/10 06:28:34;;;;;;;4.65;1.50;;;;;;;;;;5053052;28;20053;-63
2023/11/10 06:31:03;;;;;;;6.40;2.03;;;;;;;;;;5052318;28;20056;-63
2023/11/10 06:33:30;;;;;;;6.23;1.60;;;;;;;;;;5052903;28;20506;-63
2023/11/10 06:35:57;;;;;;;9.45;2.00;;;;;;;;;;5052297;28;20072;-63
2023/11/10 06:38:25;;;;;;;4.30;1.70;;;;;;;;;;5052544;28;20049;-63
2023/11/10 06:40:53;;;;;;;3.63;1.52;;;;;;;;;;5052063;28;20053;-63
2023/11/10 06:43:21;;;;;;;5.72;2.25;;;;;;;;;;5050966;28;20056;-63
2023/11/10 06:45:48;;;;;;;5.13;1.65;;;;;;;;;;5052385;28;20056;-63
2023/11/10 06:48:15;;;;;;;6.63;1.73;;;;;;;;;;5051888;28;20064;-63
2023/11/10 06:50:41;;;;;;;6.15;1.88;;;;;;;;;;5052530;28;20053;-63
2023/11/10 06:53:09;;;;;;;5.32;1.83;;;;;;;;;;5052016;28;20052;-63
2023/11/10 06:55:36;;;;;;;3.95;1.60;;;;;;;;;;5050470;28;20060;-63
2023/11/10 06:58:04;;;;;;;4.35;1.60;;;;;;;;;;5040584;28;20049;-64
2023/11/10 07:00:33;;;;;;;7.10;1.90;;;;;;;;;;5051264;28;20056;-62
2023/11/10 07:03:00;;;;;;;4.05;1.52;;;;;;;;;;5051529;28;20053;-64
2023/11/10 07:05:27;;;;;;;2.88;1.60;;;;;;;;;;5049138;28;20391;-63
2023/11/10 07:07:54;;;;;;;3.15;1.60;;;;;;;;;;5051727;28;20174;-63
2023/11/10 07:10:21;;;;;;;2.28;1.45;;;;;;;;;;5051222;28;20045;-64
2023/11/10 07:12:48;;;;;;;4.10;1.20;;;;;;;;;;5050528;28;20410;-64
2023/11/10 07:15:15;;;;;;;4.43;1.50;;;;;;;;;;5051802;28;20062;-64
2023/11/10 07:17:43;;;;;;;6.20;1.50;;;;;;;;;;5052338;28;20053;-64
2023/11/10 07:20:11;;;;;;;5.53;1.60;;;;;;;;;;5051604;28;20433;-64
2023/11/10 07:22:38;;;;;;;3.78;1.50;;;;;;;;;;5051814;28;20056;-63
2023/11/10 07:25:06;;;;;;;4.20;1.75;;;;;;;;;;5051181;28;20060;-63
2023/11/10 07:27:33;;;;;;;4.45;1.33;;;;;;;;;;5051917;28;20064;-64
2023/11/10 07:30:00;;;;;;;5.10;1.60;;;;;;;;;;5052523;28;20048;-63
2023/11/10 07:32:27;;;;;;;4.95;1.95;;;;;;;;;;5051742;28;20053;-64
2023/11/10 07:34:56;;;;;;;4.25;1.88;;;;;;;;;;5051456;28;20386;-63
2023/11/10 07:37:23;;;;;;;5.65;1.52;;;;;;;;;;5053105;28;20052;-64
2023/11/10 07:39:50;;;;;;;4.20;1.80;;;;;;;;;;5055030;28;20057;-64
2023/11/10 07:42:17;;;;;;;4.13;1.60;;;;;;;;;;5056349;28;20379;-64
2023/11/10 07:44:44;;;;;;;4.57;1.80;;;;;;;;;;5047918;28;20057;-45
2023/11/10 07:47:13;;;;;;;5.60;1.60;;;;;;;;;;5042775;28;20429;-68
2023/11/10 07:49:40;;;;;;;5.13;1.73;;;;;;;;;;5047007;28;20061;-68
2023/11/10 07:52:09;;;;;;;5.28;1.90;;;;;;;;;;5041400;28;20065;-68
2023/11/10 07:54:35;;;;;;;4.72;1.90;;;;;;;;;;5044202;28;20417;-68
2023/11/10 07:57:02;;;;;;;4.35;1.92;;;;;;;;;;5045730;28;20334;-68
2023/11/10 07:59:29;;;;;;;5.72;2.15;;;;;;;;;;5048833;28;20055;-68
2023/11/10 08:01:58;;;;;;;4.40;2.00;;;;;;;;;;5042471;28;20068;-68
2023/11/10 08:04:25;;;;;;;4.65;1.90;;;;;;;;;;5047774;28;20045;-67
2023/11/10 08:06:52;;;;;;;5.85;2.22;;;;;;;;;;5045875;28;20049;-67
2023/11/10 08:09:21;;;;;;;6.03;2.25;;;;;;;;;;5045444;28;20044;-67
2023/11/10 08:11:48;;;;;;;4.38;2.00;;;;;;;;;;5043767;28;20048;-68
2023/11/10 08:14:15;;;;;;;6.22;2.33;;;;;;;;;;5040141;28;20052;-67
2023/11/10 08:16:42;;;;;;;4.13;1.80;;;;;;;;;;5044977;28;20049;-67
2023/11/10 08:19:10;;;;;;;4.63;1.90;;;;;;;;;;5043937;28;20049;-67
2023/11/10 08:21:37;;;;;;;4.30;1.60;;;;;;;;;;5046981;28;20052;-67
2023/11/10 08:24:04;;;;;;;5.22;1.92;;;;;;;;;;5042801;28;20581;-67
2023/11/10 08:26:32;;;;;;;4.20;1.80;;;;;;;;;;5044003;28;20057;-67
2023/11/10 08:28:59;;;;;;;3.03;1.65;;;;;;;;;;5041555;28;20056;-67
2023/11/10 08:31:26;;;;;;;3.30;1.40;;;;;;;;;;5043741;28;20049;-68
2023/11/10 08:33:53;;;;;;;6.05;1.35;;;;;;;;;;5042881;28;20049;-68
2023/11/10 08:36:22;;;;;;;2.78;1.40;;;;;;;;;;5041479;28;20057;-68
2023/11/10 08:38:49;;;;;;;3.92;1.30;;;;;;;;;;5042297;28;20060;-68
2023/11/10 08:41:17;;;;;;;5.85;1.30;;;;;;;;;;5046117;28;20045;-68
2023/11/10 08:43:45;;;;;;;3.88;1.33;;;;;;;;;;5045539;28;20053;-67
2023/11/10 08:46:12;;;;;;;3.63;1.40;;;;;;;;;;5043560;28;20069;-65
2023/11/10 08:48:39;;;;;;;4.65;1.30;;;;;;;;;;5039705;28;20045;-66
2023/11/10 08:51:05;;;;;;;3.33;1.35;;;;;;;;;;5035549;28;20427;-67
2023/11/10 08:53:32;;;;;;;3.80;1.30;;;;;;;;;;5042656;28;20481;-67
2023/11/10 08:55:59;;;;;;;5.05;1.30;;;;;;;;;;5044421;28;20053;-68
2023/11/10 08:58:26;;;;;;;3.40;1.10;;;;;;;;;;5045967;28;20061;-66
2023/11/10 09:00:54;;;;;;;5.18;1.00;;;;;;;;;;5039614;28;20051;-66
2023/11/10 09:03:21;;;;;;;3.85;1.25;;;;;;;;;;5043629;28;20737;-66
2023/11/10 09:05:47;;;;;;;4.18;0.98;;;;;;;;;;5046790;28;20418;-65
2023/11/10 09:08:14;;;;;;;4.80;1.30;;;;;;;;;;5046186;28;20049;-65
2023/11/10 09:10:41;;;;;;;2.60;0.93;;;;;;;;;;5045755;28;20409;-65
2023/11/10 09:13:09;;;;;;;2.63;0.95;;;;;;;;;;5042284;28;20072;-66
2023/11/10 09:15:36;;;;;;;4.82;1.00;;;;;;;;;;5042904;28;20135;-66
2023/11/10 09:18:05;;;;;;;7.75;2.08;;;;;;;;;;5047156;28;20049;-66
2023/11/10 09:20:31;;;;;;;4.15;1.20;;;;;;;;;;5044133;28;20052;-65
2023/11/10 09:23:00;;;;;;;3.08;1.23;;;;;;;;;;5049758;28;20057;-66
2023/11/10 09:25:27;;;;;;;4.05;1.13;;;;;;;;;;5042491;28;20048;-66
2023/11/10 09:27:56;;;;;;;3.70;1.20;;;;;;;;;;5041355;28;20055;-65
2023/11/10 09:30:24;;;;;;;2.97;0.98;;;;;;;;;;5051229;28;20057;-65
2023/11/10 09:32:51;;;;;;;4.03;1.20;;;;;;;;;;5047836;28;20048;-66
2023/11/10 09:35:20;;;;;;;2.42;1.10;;;;;;;;;;5041472;28;20049;-65
2023/11/10 09:37:46;;;;;;;3.33;1.30;;;;;;;;;;5043627;28;20418;-65
2023/11/10 09:40:14;;;;;;;3.58;1.00;;;;;;;;;;5048300;28;20048;-65
2023/11/10 09:42:42;;;;;;;4.93;1.50;;;;;;;;;;5048895;28;20057;-65
2023/11/10 09:45:12;;;;;;;3.38;1.20;;;;;;;;;;5042866;28;20064;-65
2023/11/10 09:47:40;;;;;;;3.63;1.33;;;;;;;;;;5045616;28;20045;-64
2023/11/10 09:50:08;;;;;;;3.83;1.13;;;;;;;;;;5045468;28;20528;-64
2023/11/10 09:52:38;;;;;;;3.85;1.20;;;;;;;;;;5051074;28;20064;-65
2023/11/10 09:55:05;;;;;;;;;;;;;;;;;;5043137;28;20486;-65
2023/11/10 09:57:31;;;;;;;3.15;1.17;;;;;;;;;;5049920;28;19925;-65
2023/11/10 09:59:58;;;;;;;3.17;1.35;;;;;;;;;;5044642;28;20045;-65
2023/11/10 10:02:25;;;;;;;2.78;1.45;;;;;;;;;;5042288;28;20053;-65
2023/11/10 10:04:52;;;;;;;5.50;1.10;;;;;;;;;;5047114;28;20512;-65
2023/11/10 10:07:19;;;;;;;2.85;0.80;;;;;;;;;;5048889;28;20048;-65
2023/11/10 10:09:47;;;;;;;2.63;1.13;;;;;;;;;;5047890;28;20049;-65
2023/11/10 10:12:14;;;;;;;2.60;1.10;;;;;;;;;;5043517;28;20124;-65
2023/11/10 10:14:41;;;;;;;3.22;1.25;;;;;;;;;;5034372;28;20053;-65
2023/11/10 10:17:11;;;;;;;2.83;1.10;;;;;;;;;;5049671;28;20053;-65
2023/11/10 10:19:37;;;;;;;3.20;1.30;;;;;;;;;;5042521;28;20045;-65
2023/11/10 10:22:04;;;;;;;3.33;1.08;;;;;;;;;;5046048;28;20048;-66
2023/11/10 10:24:31;;;;;;;3.20;1.25;;;;;;;;;;5042780;28;20053;-65
2023/11/10 10:26:59;;;;;;;4.97;1.20;;;;;;;;;;5049825;28;20057;-65
2023/11/10 10:29:26;;;;;;;2.92;0.80;;;;;;;;;;5049474;28;20053;-65
2023/11/10 10:31:54;;;;;;;2.33;0.95;;;;;;;;;;5042328;28;20049;-66
2023/11/10 10:34:21;;;;;;;3.53;1.10;;;;;;;;;;5046743;28;20049;-65
2023/11/10 10:36:48;;;;;;;2.53;1.10;;;;;;;;;;5040106;28;20484;-65
2023/11/10 10:39:16;;;;;;;4.70;1.20;;;;;;;;;;5048450;28;20052;-66
2023/11/10 10:41:43;;;;;;;3.13;1.13;;;;;;;;;;5041887;28;20065;-63
2023/11/10 10:44:11;;;;;;;2.90;0.90;;;;;;;;;;5042355;28;20061;-64
2023/11/10 10:46:38;;;;;;;3.10;1.23;;;;;;;;;;5040514;28;20498;-65
2023/11/10 10:49:06;;;;;;;3.72;1.50;;;;;;;;;;5041019;28;20052;-65
2023/11/10 10:51:36;;;;;;;5.55;1.08;;;;;;;;;;5041176;28;20052;-63
2023/11/10 10:54:05;;;;;;;3.47;1.15;;;;;;;;;;5039737;28;20049;-65
2023/11/10 10:56:32;;;;;;;5.47;1.27;;;;;;;;;;5046227;28;20059;-66
2023/11/10 10:58:59;;;;;;;2.67;1.20;;;;;;;;;;5044349;28;20049;-65
2023/11/10 11:01:27;;;;;;;4.35;1.10;;;;;;;;;;5049230;28;20060;-65
2023/11/10 11:03:58;;;;;;;2.35;0.90;;;;;;;;;;5047523;28;20049;-67
2023/11/10 11:06:30;;;;;;;2.55;1.00;;;;;;;;;;5043179;28;20505;-65
2023/11/10 11:09:02;;;;;;;3.80;1.30;;;;;;;;;;5047545;28;20059;-65
2023/11/10 11:11:39;;;;;;;2.78;1.15;;;;;;;;;;5041411;28;20053;-65
2023/11/10 11:14:26;;;;;;;3.20;1.17;;;;;;;;;;5042634;28;20056;-64
2023/11/10 11:17:11;;;;;;;3.03;1.15;;;;;;;;;;5040695;28;20537;-65
2023/11/10 11:19:39;;;;;;;2.25;0.80;;;;;;;;;;5051479;28;20049;-65
2023/11/10 11:22:07;;;;;;;4.18;1.55;;;;;;;;;;5051396;28;20461;-65
2023/11/10 11:24:34;;;;;;;3.30;1.38;;;;;;;;;;5051421;28;20057;-65
2023/11/10 11:27:02;;;;;;;2.72;1.00;;;;;;;;;;5051570;28;20053;-65
2023/11/10 11:29:38;;;;;;;3.28;1.00;;;;;;;;;;5048249;28;20402;-66
2023/11/10 11:32:08;;;;;;;4.75;1.10;;;;;;;;;;5045204;28;20049;-65
2023/11/10 11:34:35;;;;;;;3.97;1.00;;;;;;;;;;5038874;28;20049;-66
2023/11/10 11:37:05;;;;;;;4.13;1.10;;;;;;;;;;5042337;28;20053;-66
2023/11/10 11:39:33;;;;;;;2.47;1.00;;;;;;;;;;5049954;28;20058;-66
2023/11/10 11:42:03;;;;;;;2.38;1.00;;;;;;;;;;5046700;28;20120;-66
2023/11/10 11:44:30;;;;;;;3.13;1.13;;;;;;;;;;5051068;28;20060;-66
2023/11/10 11:46:58;;;;;;;2.80;1.00;;;;;;;;;;5049349;28;20061;-66
2023/11/10 11:49:26;;;;;;;2.50;0.85;;;;;;;;;;5050595;28;20072;-67
2023/11/10 11:51:53;;;;;;;2.97;0.88;;;;;;;;;;5050088;28;20052;-66
2023/11/10 11:54:25;;;;;;;2.75;1.08;;;;;;;;;;5051440;28;20057;-66
2023/11/10 11:56:53;;;;;;;3.17;1.00;;;;;;;;;;5050513;28;20140;-66
2023/11/10 11:59:20;;;;;;;2.47;1.00;;;;;;;;;;5050596;28;20053;-66
2023/11/10 12:01:49;;;;;;;3.35;1.20;;;;;;;;;;5049266;28;20303;-65
2023/11/10 12:04:16;;;;;;;1.92;0.70;;;;;;;;;;5043485;28;20414;-66
2023/11/10 12:06:43;;;;;;;2.78;0.80;;;;;;;;;;5050199;28;20056;-59
2023/11/10 12:09:10;;;;;;;3.45;1.17;;;;;;;;;;5051301;28;20064;-63
2023/11/10 12:11:41;;;;;;;2.63;0.90;;;;;;;;;;5051510;28;20417;-63
2023/11/10 12:14:09;;;;;;;3.15;1.00;;;;;;;;;;5045135;28;20057;-65
2023/11/10 12:16:36;;;;;;;4.00;1.15;;;;;;;;;;5046859;28;20044;-70
2023/11/10 12:19:04;;;;;;;4.82;1.00;;;;;;;;;;5045442;28;20064;-70
2023/11/10 12:21:31;;;;;;;4.15;1.05;;;;;;;;;;5045555;28;20044;-71
2023/11/10 12:23:59;;;;;;;3.38;1.00;;;;;;;;;;5050210;28;20060;-68
2023/11/10 12:26:27;;;;;;;2.63;1.00;;;;;;;;;;5048043;28;20517;-69
2023/11/10 12:28:55;;;;;;;2.80;0.93;;;;;;;;;;5045068;28;20049;-69
2023/11/10 12:31:22;;;;;;;3.58;1.45;;;;;;;;;;5039348;28;20418;-69
2023/11/10 12:33:48;;;;;;;4.80;1.00;;;;;;;;;;5044569;28;20045;-69
2023/11/10 12:36:18;;;;;;;4.55;1.00;;;;;;;;;;5046696;28;20051;-68
2023/11/10 12:38:49;;;;;;;3.58;1.30;;;;;;;;;;5047208;28;20064;-68
2023/11/10 12:41:19;;;;;;;3.92;1.10;;;;;;;;;;5053585;28;20056;-68
2023/11/10 12:43:46;;;;;;;;;;;;;;;;;;5053527;28;20478;-67
2023/11/10 12:46:14;;;;;;;3.28;1.17;;;;;;;;;;5049172;28;19937;-68
2023/11/10 12:48:41;;;;;;;3.28;1.08;;;;;;;;;;5052248;28;20049;-67
2023/11/10 12:51:10;;;;;;;4.20;1.20;;;;;;;;;;5049896;28;20052;-67
2023/11/10 12:53:37;;;;;;;2.13;1.00;;;;;;;;;;5036135;28;20053;-67
2023/11/10 12:56:06;;;;;;;4.43;1.10;;;;;;;;;;5042319;28;20052;-67
2023/11/10 12:58:34;;;;;;;4.78;1.05;;;;;;;;;;5052216;28;20391;-68
2023/11/10 13:01:00;;;;;;;3.30;1.33;;;;;;;;;;5053023;28;20053;-68
2023/11/10 13:03:29;;;;;;;3.78;1.10;;;;;;;;;;5051794;28;20072;-68
2023/11/10 13:05:56;;;;;;;3.80;1.10;;;;;;;;;;5037615;28;20056;-68
2023/11/10 13:08:24;;;;;;;2.60;1.00;;;;;;;;;;5053746;28;20061;-68
2023/11/10 13:10:51;;;;;;;2.53;1.08;;;;;;;;;;5037893;28;20053;-67
2023/11/10 13:13:18;;;;;;;3.42;1.30;;;;;;;;;;5048912;28;20053;-67
2023/11/10 13:15:47;;;;;;;6.18;1.30;;;;;;;;;;5048002;28;20046;-68
2023/11/10 13:18:14;;;;;;;4.57;1.50;;;;;;;;;;5046649;28;20059;-68
2023/11/10 13:20:42;;;;;;;4.45;1.23;;;;;;;;;;5052062;28;20060;-68
2023/11/10 13:23:09;;;;;;;3.63;1.08;;;;;;;;;;5042687;28;20054;-68
2023/11/10 13:25:36;;;;;;;3.67;1.10;;;;;;;;;;5042088;28;20064;-68
2023/11/10 13:28:07;;;;;;;3.47;1.10;;;;;;;;;;5049452;28;20056;-69
2023/11/10 13:30:33;;;;;;;7.05;1.60;;;;;;;;;;5036327;28;20049;-68
2023/11/10 13:33:00;;;;;;;3.63;1.20;;;;;;;;;;5044478;28;20053;-68
2023/11/10 13:35:27;;;;;;;4.57;1.25;;;;;;;;;;5042322;28;20049;-68
2023/11/10 13:37:56;;;;;;;4.40;1.40;;;;;;;;;;5040523;28;20057;-68
2023/11/10 13:40:23;;;;;;;4.00;1.20;;;;;;;;;;5042527;28;20053;-68
2023/11/10 13:42:50;;;;;;;3.95;0.98;;;;;;;;;;5051860;28;20059;-68
2023/11/10 13:45:17;;;;;;;2.92;1.00;;;;;;;;;;5034661;28;20053;-68
2023/11/10 13:47:44;;;;;;;4.68;1.20;;;;;;;;;;5052582;28;20441;-69
2023/11/10 13:50:11;;;;;;;4.70;1.10;;;;;;;;;;5049789;28;20064;-69
2023/11/10 13:52:38;;;;;;;3.65;1.20;;;;;;;;;;5045477;28;20056;-70
2023/11/10 13:55:09;;;;;;;3.78;1.15;;;;;;;;;;5049497;28;20053;-70
2023/11/10 13:57:37;;;;;;;3.75;1.10;;;;;;;;;;5048920;28;20053;-71
2023/11/10 14:00:08;;;;;;;4.38;1.38;;;;;;;;;;5052991;28;20071;-70
2023/11/10 14:02:34;;;;;;;3.78;1.42;;;;;;;;;;5048279;28;20068;-71
2023/11/10 14:05:04;;;;;;;3.70;0.93;;;;;;;;;;5046125;28;20048;-71
2023/11/10 14:07:31;;;;;;;3.85;1.02;;;;;;;;;;5049089;28;20437;-71
2023/11/10 14:09:58;;;;;;;2.95;1.00;;;;;;;;;;5045556;28;20065;-71
2023/11/10 14:12:26;;;;;;;3.88;1.55;;;;;;;;;;5036362;28;20057;-71
2023/11/10 14:14:52;;;;;;;5.82;1.10;;;;;;;;;;5047074;28;20059;-71
2023/11/10 14:17:22;;;;;;;3.90;1.00;;;;;;;;;;5050580;28;20422;-71
2023/11/10 14:19:48;;;;;;;5.90;1.42;;;;;;;;;;5052073;28;20053;-71
2023/11/10 14:22:15;;;;;;;4.15;1.20;;;;;;;;;;5046268;28;20051;-71
2023/11/10 14:24:42;;;;;;;4.60;1.50;;;;;;;;;;5045090;28;20057;-71
2023/11/10 14:27:09;;;;;;;2.63;0.95;;;;;;;;;;5043483;28;20052;-71
2023/11/10 14:29:38;;;;;;;4.97;1.35;;;;;;;;;;5052333;28;20053;-71
2023/11/10 14:32:08;;;;;;;5.43;1.40;;;;;;;;;;5051335;28;20097;-71
2023/11/10 14:34:38;;;;;;;3.17;1.20;;;;;;;;;;5051689;28;20057;-72
2023/11/10 14:37:05;;;;;;;;;;;;;;;;;;5051580;28;20041;-71
2023/11/10 14:39:32;;;;;;;7.18;1.30;;;;;;;;;;5035378;28;19928;-71
2023/11/10 14:41:59;;;;;;;4.80;1.05;;;;;;;;;;5051987;28;20479;-72
2023/11/10 14:44:26;;;;;;;5.57;1.20;;;;;;;;;;5046720;28;20078;-71